Terminal Aerodrome Forecast
Issued by NWS Glasgow, MT

Home | Current Version | Previous Version | Text Only | Print | Product List | Glossary On
Versions: 1 2 3 4 5 6 7 8 9 10 11 12
000
FTUS45 KGGW 220533
TAFGGW
TAF
KGGW 220533Z 2206/2306 18006KT P6SM BKN100
     FM221000 00000KT P6SM VCSH BKN100
     FM221500 33005KT P6SM -SHRA BKN100
     FM221900 01006KT P6SM -SHRA BKN070 PROB30 2219/2224 -TSRA
      OVC070CB
     FM230500 08007KT P6SM SCT070=

USA.gov is the U.S. government's official web portal to all federal, state and local government web resources and services.